createdAt,value
2016-07-03T00:01:11.914Z,11.9
2016-07-03T00:04:24.613Z,11.8
2016-07-03T00:07:42.286Z,11.8
2016-07-03T00:10:50.092Z,11.7
2016-07-03T00:13:52.817Z,11.7
2016-07-03T00:17:05.443Z,11.7
2016-07-03T00:20:18.443Z,11.6
2016-07-03T00:23:31.212Z,11.6
2016-07-03T00:29:51.578Z,11.6
2016-07-03T00:33:02.203Z,11.5
2016-07-03T00:36:14.712Z,11.5
2016-07-03T00:39:27.290Z,11.5
2016-07-03T00:42:44.852Z,11.4
2016-07-03T00:45:48.214Z,11.4
2016-07-03T00:49:01.347Z,11.4
2016-07-03T00:52:11.513Z,11.3
2016-07-03T00:55:24.538Z,11.3
2016-07-03T00:58:42.729Z,11.3
2016-07-03T01:01:51.000Z,11.3
2016-07-03T01:04:54.075Z,11.2
2016-07-03T01:08:06.920Z,11.2
2016-07-03T01:11:19.548Z,11.2
2016-07-03T01:14:32.026Z,11.2
2016-07-03T01:17:49.202Z,11.1
2016-07-03T01:20:49.758Z,11.1
2016-07-03T01:24:04.071Z,11.1
2016-07-03T01:27:16.353Z,11.1
2016-07-03T01:30:28.906Z,11.1
2016-07-03T01:33:45.098Z,11.1
2016-07-03T01:36:47.538Z,11
2016-07-03T01:39:59.917Z,11
2016-07-03T01:43:10.143Z,11
2016-07-03T01:46:24.232Z,11
2016-07-03T01:49:36.672Z,11
2016-07-03T01:52:48.857Z,10.9
2016-07-03T01:56:01.168Z,10.9
2016-07-03T01:59:13.493Z,10.9
2016-07-03T02:02:25.769Z,10.9
2016-07-03T02:05:42.809Z,10.9
2016-07-03T02:08:50.082Z,10.9
2016-07-03T02:11:52.422Z,10.9
2016-07-03T02:15:04.833Z,10.9
2016-07-03T02:18:17.194Z,10.9
2016-07-03T02:21:29.448Z,10.8
2016-07-03T02:24:46.911Z,10.8
2016-07-03T02:27:49.224Z,10.8
2016-07-03T02:31:01.247Z,10.8
2016-07-03T02:34:13.597Z,10.7
2016-07-03T02:37:24.932Z,10.7
2016-07-03T02:40:36.998Z,10.6
2016-07-03T02:43:49.028Z,10.6
2016-07-03T02:47:00.982Z,10.6
2016-07-03T02:50:13.093Z,10.5
2016-07-03T02:53:25.076Z,10.5
2016-07-03T02:56:37.091Z,10.5
2016-07-03T02:59:49.303Z,10.5
2016-07-03T03:02:59.208Z,10.5
2016-07-03T03:06:11.572Z,10.4
2016-07-03T03:09:27.862Z,10.4
2016-07-03T03:12:35.764Z,10.4
2016-07-03T03:15:50.505Z,10.4
2016-07-03T03:18:52.732Z,10.4
2016-07-03T03:22:05.009Z,10.4
2016-07-03T03:25:15.977Z,10.4
2016-07-03T03:28:28.302Z,10.4
2016-07-03T03:31:45.639Z,10.4
2016-07-03T03:34:48.033Z,10.4
2016-07-03T03:38:00.491Z,10.4
2016-07-03T03:41:12.152Z,10.5
2016-07-03T03:44:24.510Z,10.5
2016-07-03T03:47:36.842Z,10.5
2016-07-03T03:50:49.116Z,10.5
2016-07-03T03:53:56.991Z,10.5
2016-07-03T03:57:10.998Z,10.5
2016-07-03T04:00:22.878Z,10.5
2016-07-03T04:03:35.179Z,10.5
2016-07-03T04:06:52.323Z,10.5
2016-07-03T04:09:54.677Z,10.5
2016-07-03T04:13:06.688Z,10.5
2016-07-03T04:16:18.889Z,10.6
2016-07-03T04:19:31.110Z,10.6
2016-07-03T04:22:48.238Z,10.6
2016-07-03T04:25:50.519Z,10.6
2016-07-03T04:29:02.893Z,10.7
2016-07-03T04:32:15.304Z,10.7
2016-07-03T04:35:27.464Z,10.7
2016-07-03T04:38:44.696Z,10.8
2016-07-03T04:41:52.111Z,10.9
2016-07-03T04:44:54.364Z,11
2016-07-03T04:48:06.903Z,11.1
2016-07-03T04:51:17.587Z,11.3
2016-07-03T04:54:30.315Z,11.6
2016-07-03T04:57:47.906Z,11.9
2016-07-03T05:00:50.455Z,12.3
2016-07-03T05:04:02.653Z,12.6
2016-07-03T05:07:15.317Z,12.9
2016-07-03T05:10:24.567Z,13.1
2016-07-03T05:13:37.179Z,13.4
2016-07-03T05:16:49.379Z,13.7
2016-07-03T05:19:58.810Z,13.9
2016-07-03T05:23:09.293Z,14.1
2016-07-03T05:26:21.725Z,14.4
2016-07-03T05:29:34.308Z,14.6
2016-07-03T05:32:50.128Z,14.9
2016-07-03T05:35:52.941Z,15.2
2016-07-03T05:39:06.007Z,15.4
2016-07-03T05:42:16.278Z,15.6
2016-07-03T05:45:29.116Z,15.8
2016-07-03T05:48:47.425Z,16.1
2016-07-03T05:51:51.040Z,16.4
2016-07-03T05:55:06.125Z,16.6
2016-07-03T05:58:15.442Z,16.9
2016-07-03T06:01:28.838Z,17.2
2016-07-03T06:04:47.019Z,17.2
2016-07-03T06:07:50.750Z,17.4
2016-07-03T06:11:02.271Z,17.7
2016-07-03T06:14:17.926Z,18.2
2016-07-03T06:17:31.547Z,18.5
2016-07-03T06:20:47.699Z,18.8
2016-07-03T06:23:51.610Z,19.1
2016-07-03T06:27:05.210Z,19.4
2016-07-03T06:30:18.970Z,19.7
2016-07-03T06:33:31.056Z,20
2016-07-03T06:36:49.817Z,20.5
2016-07-03T06:39:53.789Z,20.8
2016-07-03T06:43:07.454Z,21
2016-07-03T06:46:21.113Z,21.3
2016-07-03T06:49:34.987Z,21.6
2016-07-03T06:52:49.228Z,22.3
2016-07-03T06:56:03.557Z,23
2016-07-03T06:59:18.508Z,23.2
2016-07-03T07:02:33.012Z,23
2016-07-03T07:05:52.019Z,23
2016-07-03T07:08:56.510Z,23.2
2016-07-03T07:12:09.131Z,24
2016-07-03T07:15:25.631Z,24.7
2016-07-03T07:18:44.844Z,24.9
2016-07-03T07:21:49.430Z,25.3
2016-07-03T07:25:01.861Z,26
2016-07-03T07:28:18.458Z,26.8
2016-07-03T07:31:33.213Z,27.4
2016-07-03T07:34:52.555Z,27.5
2016-07-03T07:37:57.514Z,27.4
2016-07-03T07:41:12.171Z,27.4
2016-07-03T07:44:26.351Z,25.7
2016-07-03T07:47:45.299Z,24.1
2016-07-03T07:50:49.827Z,24.5
2016-07-03T07:54:04.298Z,25.5
2016-07-03T07:57:18.622Z,24.6
2016-07-03T08:00:32.241Z,23
2016-07-03T08:03:51.014Z,23.3
2016-07-03T08:06:53.422Z,23.3
2016-07-03T08:10:09.413Z,23.7
2016-07-03T08:13:23.744Z,23.8
2016-07-03T08:16:37.691Z,23.4
2016-07-03T08:19:51.717Z,24.3
2016-07-03T08:23:06.058Z,25.4
2016-07-03T08:26:20.846Z,26.5
2016-07-03T08:29:35.857Z,27.4
2016-07-03T08:32:50.860Z,28.2
2016-07-03T08:36:05.281Z,27.6
2016-07-03T08:39:19.081Z,26.1
2016-07-03T08:42:32.874Z,25.1
2016-07-03T08:45:51.682Z,24.4
2016-07-03T08:48:55.820Z,23.3
2016-07-03T08:52:09.283Z,22.8
2016-07-03T08:55:22.819Z,22
2016-07-03T08:58:36.402Z,21.4
2016-07-03T09:01:48.571Z,22.1
2016-07-03T09:05:05.262Z,23.6
2016-07-03T09:08:19.997Z,25.2
2016-07-03T09:11:34.887Z,26.1
2016-07-03T09:14:49.814Z,26.4
2016-07-03T09:18:04.422Z,25.4
2016-07-03T09:21:18.149Z,24.1
2016-07-03T09:24:32.680Z,24.9
2016-07-03T09:27:52.488Z,25.5
2016-07-03T09:30:57.100Z,24.6
2016-07-03T09:34:08.882Z,23.1
2016-07-03T09:37:22.327Z,22.5
2016-07-03T09:40:43.941Z,23.5
2016-07-03T09:43:48.990Z,24.7
2016-07-03T09:47:03.559Z,24.6
2016-07-03T09:50:17.153Z,23.4
2016-07-03T09:53:30.612Z,22
2016-07-03T09:56:49.367Z,21.7
2016-07-03T09:59:53.926Z,22.8
2016-07-03T10:03:06.680Z,23.7
2016-07-03T10:06:23.072Z,24.1
2016-07-03T10:09:37.645Z,23.9
2016-07-03T10:12:51.669Z,23.7
2016-07-03T10:16:05.788Z,23.4
2016-07-03T10:19:19.736Z,23.1
2016-07-03T10:22:33.679Z,22.9
2016-07-03T10:25:52.519Z,22.3
2016-07-03T10:28:56.571Z,21.9
2016-07-03T10:32:10.348Z,21.6
2016-07-03T10:35:23.821Z,21.5
2016-07-03T10:38:37.358Z,21.3
2016-07-03T10:41:50.856Z,21.2
2016-07-03T10:45:04.591Z,20.9
2016-07-03T10:48:16.693Z,20.5
2016-07-03T10:51:32.032Z,20.1
2016-07-03T10:54:50.486Z,20
2016-07-03T10:57:54.301Z,19.8
2016-07-03T11:01:07.755Z,19.6
2016-07-03T11:04:21.289Z,19.4
2016-07-03T11:07:34.829Z,19.3
2016-07-03T11:10:53.415Z,19.4
2016-07-03T11:13:57.307Z,19.5
2016-07-03T11:17:10.894Z,19.5
2016-07-03T11:20:24.080Z,19.5
2016-07-03T11:23:37.594Z,19.5
2016-07-03T11:26:51.002Z,19.5
2016-07-03T11:30:04.425Z,19.5
2016-07-03T11:33:18.009Z,19.4
2016-07-03T11:36:31.524Z,19.4
2016-07-03T11:39:48.149Z,19.3
2016-07-03T11:42:51.915Z,19.3
2016-07-03T11:46:05.869Z,19.1
2016-07-03T11:49:17.639Z,19.1
2016-07-03T11:52:33.697Z,19
2016-07-03T11:55:52.255Z,19.1
2016-07-03T11:58:56.378Z,19.1
2016-07-03T12:02:10.049Z,18.9
2016-07-03T12:05:23.894Z,18.8
2016-07-03T12:08:37.862Z,18.8
2016-07-03T12:11:51.383Z,18.9
2016-07-03T12:15:03.176Z,18.9
2016-07-03T12:18:19.115Z,18.9
2016-07-03T12:21:32.827Z,18.8
2016-07-03T12:24:51.571Z,18.7
2016-07-03T12:27:55.479Z,18.7
2016-07-03T12:31:08.959Z,18.7
2016-07-03T12:34:22.865Z,18.8
2016-07-03T12:37:36.651Z,18.8
2016-07-03T12:40:50.491Z,18.9
2016-07-03T12:44:04.297Z,18.9
2016-07-03T12:47:18.168Z,18.9
2016-07-03T12:50:31.969Z,18.9
2016-07-03T12:53:50.663Z,19
2016-07-03T12:56:54.776Z,19.1
2016-07-03T13:00:08.530Z,19.1
2016-07-03T13:03:22.227Z,19.1
2016-07-03T13:06:36.046Z,19.1
2016-07-03T13:09:49.810Z,19.1
2016-07-03T13:13:00.625Z,19
2016-07-03T13:16:14.487Z,18.9
2016-07-03T13:19:28.188Z,18.8
2016-07-03T13:22:47.269Z,18.9
2016-07-03T13:25:49.503Z,18.9
2016-07-03T13:29:03.220Z,18.9
2016-07-03T13:32:19.080Z,18.9
2016-07-03T13:35:32.895Z,18.8
2016-07-03T13:38:49.888Z,18.7
2016-07-03T13:41:53.941Z,18.6
2016-07-03T13:45:07.608Z,18.6
2016-07-03T13:48:21.316Z,18.6
2016-07-03T13:51:34.336Z,18.8
2016-07-03T13:54:53.224Z,18.9
2016-07-03T13:57:57.315Z,19
2016-07-03T14:01:11.007Z,19
2016-07-03T14:04:24.503Z,18.9
2016-07-03T14:07:38.028Z,18.9
2016-07-03T14:10:51.378Z,18.8
2016-07-03T14:14:05.220Z,18.8
2016-07-03T14:17:18.979Z,18.8
2016-07-03T14:20:32.782Z,18.9
2016-07-03T14:23:51.256Z,18.9
2016-07-03T14:26:55.237Z,18.9
2016-07-03T14:30:07.958Z,18.9
2016-07-03T14:33:21.627Z,19
2016-07-03T14:36:35.503Z,19.1
2016-07-03T14:39:54.301Z,19.2
2016-07-03T14:42:58.274Z,19.2
2016-07-03T14:46:11.959Z,19.3
2016-07-03T14:49:25.622Z,19.2
2016-07-03T14:52:39.602Z,19.2
2016-07-03T14:55:53.636Z,19.2
2016-07-03T14:59:05.387Z,19
2016-07-03T15:02:19.055Z,19
2016-07-03T15:05:32.507Z,18.9
2016-07-03T15:08:51.157Z,18.9
2016-07-03T15:11:55.162Z,18.9
2016-07-03T15:15:06.846Z,18.9
2016-07-03T15:18:22.532Z,18.9
2016-07-03T15:21:36.202Z,18.9
2016-07-03T15:24:55.062Z,18.9
2016-07-03T15:27:59.230Z,18.9
2016-07-03T15:31:12.363Z,19.1
2016-07-03T15:34:26.223Z,19.1
2016-07-03T15:37:39.955Z,19.1
2016-07-03T15:40:53.881Z,19
2016-07-03T15:44:04.975Z,18.8
2016-07-03T15:47:16.809Z,18.7
2016-07-03T15:50:32.509Z,18.7
2016-07-03T15:53:51.206Z,18.6
2016-07-03T15:56:55.224Z,18.6
2016-07-03T16:00:08.974Z,18.6
2016-07-03T16:03:22.858Z,18.6
2016-07-03T16:06:36.664Z,18.7
2016-07-03T16:09:55.471Z,18.8
2016-07-03T16:12:59.481Z,18.8
2016-07-03T16:16:13.216Z,18.8
2016-07-03T16:19:26.918Z,18.7
2016-07-03T16:22:40.750Z,18.7
2016-07-03T16:25:54.440Z,18.6
2016-07-03T16:29:08.081Z,18.4
2016-07-03T16:32:19.982Z,18.3
2016-07-03T16:35:33.412Z,18.3
2016-07-03T16:38:51.949Z,18.2
2016-07-03T16:41:55.827Z,18.2
2016-07-03T16:45:09.399Z,18.2
2016-07-03T16:48:22.648Z,18.2
2016-07-03T16:51:36.276Z,18.2
2016-07-03T16:54:54.724Z,18.1
2016-07-03T16:57:58.597Z,18.1
2016-07-03T17:01:12.234Z,18
2016-07-03T17:04:26.326Z,18.1
2016-07-03T17:07:40.317Z,18.2
2016-07-03T17:10:54.305Z,18.1
2016-07-03T17:14:08.334Z,18
2016-07-03T17:17:22.217Z,17.9
2016-07-03T17:20:36.024Z,17.8
2016-07-03T17:23:54.842Z,17.7
2016-07-03T17:26:59.063Z,17.7
2016-07-03T17:30:12.889Z,17.7
2016-07-03T17:33:26.820Z,17.7
2016-07-03T17:36:40.738Z,17
2016-07-03T17:39:54.368Z,16.3
2016-07-03T17:43:08.011Z,15.8
2016-07-03T17:46:22.042Z,15.5
2016-07-03T17:49:35.411Z,15.4
2016-07-03T17:52:54.251Z,15.4
2016-07-03T17:55:58.461Z,15.6
2016-07-03T17:59:10.733Z,15.9
2016-07-03T18:02:24.663Z,16.1
2016-07-03T18:05:38.654Z,16.1
2016-07-03T18:08:51.624Z,16.2
2016-07-03T18:12:05.384Z,16.1
2016-07-03T18:15:19.167Z,15.9
2016-07-03T18:18:32.907Z,15.7
2016-07-03T18:21:51.644Z,15.5
2016-07-03T18:24:55.619Z,15.5
2016-07-03T18:28:08.945Z,15.4
2016-07-03T18:31:20.467Z,15.4
2016-07-03T18:34:36.302Z,15.4
2016-07-03T18:37:54.981Z,15.5
2016-07-03T18:40:59.228Z,15.5
2016-07-03T18:44:10.068Z,15.6
2016-07-03T18:47:23.847Z,15.6
2016-07-03T18:50:35.722Z,15.6
2016-07-03T18:56:56.981Z,15.5
2016-07-03T19:00:10.724Z,15.5
2016-07-03T19:03:23.381Z,15.4
2016-07-03T19:06:36.105Z,15.4
2016-07-03T19:09:52.119Z,15.2
2016-07-03T19:12:55.936Z,15.2
2016-07-03T19:16:09.571Z,15.3
2016-07-03T19:19:23.019Z,15.3
2016-07-03T19:22:36.517Z,15.2
2016-07-03T19:25:55.134Z,15.1
2016-07-03T19:28:59.015Z,15.1
2016-07-03T19:32:12.418Z,15.1
2016-07-03T19:35:25.951Z,15.1
2016-07-03T19:38:39.508Z,15
2016-07-03T19:41:53.227Z,14.9
2016-07-03T19:45:04.541Z,14.9
2016-07-03T19:48:18.062Z,14.9
2016-07-03T19:51:31.210Z,14.8
2016-07-03T19:54:49.578Z,14.8
2016-07-03T19:57:53.423Z,14.8
2016-07-03T20:01:06.764Z,14.7
2016-07-03T20:04:19.911Z,14.7
2016-07-03T20:07:33.217Z,14.6
2016-07-03T20:10:51.452Z,14.5
2016-07-03T20:13:55.180Z,14.4
2016-07-03T20:17:08.298Z,14.4
2016-07-03T20:20:21.525Z,14.4
2016-07-03T20:23:33.943Z,14.3
2016-07-03T20:26:52.505Z,14.3
2016-07-03T20:29:56.204Z,14.2
2016-07-03T20:33:09.635Z,14.2
2016-07-03T20:36:23.073Z,14.1
2016-07-03T20:39:36.729Z,14.1
2016-07-03T20:42:52.826Z,14
2016-07-03T20:45:56.526Z,14
2016-07-03T20:49:10.295Z,14
2016-07-03T20:52:21.995Z,13.9
2016-07-03T20:55:37.832Z,13.9
2016-07-03T20:58:55.733Z,13.8
2016-07-03T21:01:59.715Z,13.8
2016-07-03T21:05:13.218Z,13.8
2016-07-03T21:08:26.882Z,13.7
2016-07-03T21:11:40.564Z,13.7
2016-07-03T21:14:53.566Z,13.6
2016-07-03T21:18:07.123Z,13.5
2016-07-03T21:21:20.721Z,13.5
2016-07-03T21:24:34.283Z,13.5
2016-07-03T21:27:52.813Z,13.4
2016-07-03T21:30:56.718Z,13.4
2016-07-03T21:34:10.555Z,13.4
2016-07-03T21:37:24.136Z,13.3
2016-07-03T21:40:37.888Z,13.2
2016-07-03T21:43:56.474Z,13.2
2016-07-03T21:47:00.425Z,13.2
2016-07-03T21:50:14.179Z,13.2
2016-07-03T21:53:27.939Z,13.2
2016-07-03T21:56:41.752Z,13.2
2016-07-03T21:59:55.175Z,13.2
2016-07-03T22:03:08.932Z,13.1
2016-07-03T22:06:22.633Z,13.1
2016-07-03T22:09:33.731Z,13.1
2016-07-03T22:12:52.385Z,13.1
2016-07-03T22:15:56.304Z,13
2016-07-03T22:19:10.060Z,13
2016-07-03T22:22:23.815Z,12.9
2016-07-03T22:25:37.501Z,12.9
2016-07-03T22:28:54.582Z,13
2016-07-03T22:31:58.526Z,12.9
2016-07-03T22:35:10.178Z,12.9
2016-07-03T22:38:26.038Z,12.9
2016-07-03T22:41:39.728Z,12.9
2016-07-03T22:44:58.227Z,12.9
2016-07-03T22:48:02.221Z,12.9
2016-07-03T22:51:15.892Z,12.8
2016-07-03T22:54:29.654Z,12.7
2016-07-03T22:57:43.230Z,12.7
2016-07-03T23:00:54.953Z,12.6
2016-07-03T23:04:08.579Z,12.6
2016-07-03T23:07:22.508Z,12.5
2016-07-03T23:10:36.255Z,12.5
2016-07-03T23:13:53.057Z,12.5
2016-07-03T23:16:57.202Z,12.4
2016-07-03T23:20:10.871Z,12.4
2016-07-03T23:23:24.709Z,12.3
2016-07-03T23:26:38.780Z,12.3
2016-07-03T23:29:57.504Z,12.2
2016-07-03T23:33:01.632Z,12.2
2016-07-03T23:36:15.484Z,12.1
2016-07-03T23:39:29.522Z,12.1
2016-07-03T23:42:43.439Z,12.1
2016-07-03T23:45:55.946Z,12.1
2016-07-03T23:49:10.012Z,12.1
2016-07-03T23:52:21.141Z,12
2016-07-03T23:55:34.201Z,12
2016-07-03T23:58:53.090Z,12
